createdAt,value
2017-09-27T00:00:37.497Z,0.00
2017-09-27T00:02:31.881Z,0.00
2017-09-27T00:03:31.919Z,0.00
2017-09-27T00:05:25.261Z,0.00
2017-09-27T00:06:25.346Z,0.00
2017-09-27T00:08:18.768Z,0.00
2017-09-27T00:09:18.729Z,0.00
2017-09-27T00:11:12.129Z,0.00
2017-09-27T00:12:12.116Z,0.00
2017-09-27T00:14:05.583Z,0.00
2017-09-27T00:15:05.568Z,0.00
2017-09-27T00:16:58.947Z,0.00
2017-09-27T00:17:58.983Z,0.00
2017-09-27T00:20:05.313Z,0.00
2017-09-27T00:21:05.330Z,0.00
2017-09-27T00:22:58.747Z,0.00
2017-09-27T00:23:58.764Z,0.00
2017-09-27T00:25:53.124Z,0.00
2017-09-27T00:26:53.094Z,0.00
2017-09-27T00:28:46.522Z,0.00
2017-09-27T00:29:46.514Z,0.00
2017-09-27T00:31:39.928Z,0.00
2017-09-27T00:32:39.947Z,0.00
2017-09-27T00:34:33.335Z,0.00
2017-09-27T00:35:33.339Z,0.00
2017-09-27T00:37:26.743Z,0.00
2017-09-27T00:38:26.736Z,0.00
2017-09-27T00:40:27.738Z,0.00
2017-09-27T00:41:20.141Z,0.00
2017-09-27T00:43:13.574Z,0.00
2017-09-27T00:44:13.553Z,0.00
2017-09-27T00:46:06.970Z,0.00
2017-09-27T00:47:06.979Z,0.00
2017-09-27T00:49:00.352Z,0.00
2017-09-27T00:50:00.335Z,0.00
2017-09-27T00:51:53.765Z,0.00
2017-09-27T00:52:53.773Z,0.00
2017-09-27T00:54:47.202Z,0.00
2017-09-27T00:55:47.130Z,0.00
2017-09-27T00:57:41.596Z,0.00
2017-09-27T00:58:41.592Z,0.00
2017-09-27T01:00:34.935Z,0.00
2017-09-27T01:01:34.953Z,0.00
2017-09-27T01:03:37.028Z,0.00
2017-09-27T01:04:28.370Z,0.00
2017-09-27T01:06:21.723Z,0.00
2017-09-27T01:07:21.773Z,0.00
2017-09-27T01:09:15.249Z,0.00
2017-09-27T01:10:15.190Z,0.00
2017-09-27T01:12:08.608Z,0.00
2017-09-27T01:13:08.590Z,0.00
2017-09-27T01:15:01.989Z,0.00
2017-09-27T01:16:01.976Z,0.00
2017-09-27T01:17:55.391Z,0.00
2017-09-27T01:18:55.386Z,0.00
2017-09-27T01:20:48.779Z,0.00
2017-09-27T01:21:48.824Z,0.00
2017-09-27T01:23:42.190Z,0.00
2017-09-27T01:24:42.266Z,0.00
2017-09-27T01:26:35.663Z,0.00
2017-09-27T01:27:35.650Z,0.00
2017-09-27T01:29:28.995Z,0.00
2017-09-27T01:30:36.643Z,0.00
2017-09-27T01:32:30.020Z,0.00
2017-09-27T01:33:22.413Z,0.00
2017-09-27T01:35:16.837Z,0.00
2017-09-27T01:36:16.848Z,0.00
2017-09-27T01:38:17.863Z,0.00
2017-09-27T01:39:10.266Z,0.00
2017-09-27T01:41:03.672Z,0.00
2017-09-27T01:42:03.681Z,0.00
2017-09-27T01:43:57.087Z,0.00
2017-09-27T01:44:57.070Z,0.00
2017-09-27T01:46:58.124Z,0.00
2017-09-27T01:47:51.633Z,0.00
2017-09-27T01:49:51.485Z,0.00
2017-09-27T01:52:30.952Z,0.00
2017-09-27T01:54:44.162Z,0.00
2017-09-27T01:55:25.288Z,0.00
2017-09-27T01:57:25.973Z,0.00
2017-09-27T01:58:26.895Z,0.00
2017-09-27T02:00:19.452Z,0.00
2017-09-27T02:01:11.691Z,0.00
2017-09-27T02:03:12.720Z,0.00
2017-09-27T02:04:05.115Z,0.00
2017-09-27T02:05:58.570Z,0.00
2017-09-27T02:06:58.584Z,0.00
2017-09-27T02:09:01.562Z,0.00
2017-09-27T02:09:52.913Z,0.00
2017-09-27T02:11:46.402Z,0.00
2017-09-27T02:12:46.359Z,0.00
2017-09-27T02:14:47.376Z,0.00
2017-09-27T02:15:39.754Z,0.00
2017-09-27T02:17:33.204Z,0.00
2017-09-27T02:18:33.139Z,0.00
2017-09-27T02:20:34.159Z,0.00
2017-09-27T02:21:26.565Z,0.00
2017-09-27T02:23:21.976Z,0.00
2017-09-27T02:24:21.995Z,0.00
2017-09-27T02:26:15.376Z,0.00
2017-09-27T02:27:15.336Z,0.00
2017-09-27T02:29:08.790Z,0.00
2017-09-27T02:30:08.813Z,0.00
2017-09-27T02:32:02.263Z,0.00
2017-09-27T02:33:02.177Z,0.00
2017-09-27T02:34:56.554Z,0.00
2017-09-27T02:35:56.619Z,0.00
2017-09-27T02:37:49.982Z,0.00
2017-09-27T02:38:49.996Z,0.00
2017-09-27T02:40:43.449Z,0.00
2017-09-27T02:41:51.038Z,0.00
2017-09-27T02:43:44.373Z,0.00
2017-09-27T02:44:36.797Z,0.00
2017-09-27T02:46:37.824Z,0.00
2017-09-27T02:47:30.271Z,0.00
2017-09-27T02:49:31.251Z,0.00
2017-09-27T02:50:23.670Z,0.00
2017-09-27T02:52:26.665Z,0.00
2017-09-27T02:53:18.022Z,0.00
2017-09-27T02:55:19.106Z,0.00
2017-09-27T02:56:11.454Z,0.00
2017-09-27T02:58:14.496Z,0.00
2017-09-27T02:59:05.834Z,0.00
2017-09-27T03:01:06.881Z,0.00
2017-09-27T03:01:59.244Z,0.00
2017-09-27T03:04:00.613Z,0.00
2017-09-27T03:04:52.635Z,0.00
2017-09-27T03:06:53.705Z,0.00
2017-09-27T03:07:46.091Z,0.00
2017-09-27T03:09:48.036Z,0.00
2017-09-27T03:10:39.439Z,0.00
2017-09-27T03:12:41.499Z,0.00
2017-09-27T03:13:32.853Z,0.00
2017-09-27T03:15:34.850Z,0.00
2017-09-27T03:16:26.247Z,0.00
2017-09-27T03:18:29.292Z,0.00
2017-09-27T03:19:20.681Z,0.00
2017-09-27T03:21:21.698Z,0.00
2017-09-27T03:22:14.117Z,0.00
2017-09-27T03:24:15.053Z,0.00
2017-09-27T03:25:07.456Z,0.00
2017-09-27T03:27:09.163Z,0.00
2017-09-27T03:28:00.850Z,0.00
2017-09-27T03:30:01.945Z,0.00
2017-09-27T03:30:54.360Z,0.00
2017-09-27T03:32:48.962Z,0.00
2017-09-27T03:33:48.757Z,0.00
2017-09-27T03:35:51.269Z,0.00
2017-09-27T03:36:49.727Z,0.00
2017-09-27T03:38:43.258Z,0.00
2017-09-27T03:39:35.470Z,0.00
2017-09-27T03:41:37.550Z,0.00
2017-09-27T03:42:28.959Z,0.00
2017-09-27T03:44:30.987Z,0.00
2017-09-27T03:45:22.345Z,0.00
2017-09-27T03:47:15.882Z,0.00
2017-09-27T03:48:15.758Z,0.00
2017-09-27T03:50:17.839Z,0.00
2017-09-27T03:51:10.075Z,0.00
2017-09-27T03:53:03.494Z,0.00
2017-09-27T03:54:03.526Z,0.00
2017-09-27T03:55:56.989Z,0.00
2017-09-27T03:56:56.988Z,0.00
2017-09-27T03:58:50.379Z,0.00
2017-09-27T03:59:50.415Z,0.00
2017-09-27T04:01:43.791Z,0.00
2017-09-27T04:02:43.787Z,0.00
2017-09-27T04:04:37.201Z,0.00
2017-09-27T04:05:37.184Z,0.00
2017-09-27T04:07:30.580Z,0.00
2017-09-27T04:08:30.615Z,0.00
2017-09-27T04:10:24.029Z,0.00
2017-09-27T04:11:23.979Z,0.00
2017-09-27T04:13:17.444Z,0.00
2017-09-27T04:14:17.401Z,0.00
2017-09-27T04:16:10.800Z,0.00
2017-09-27T04:17:18.537Z,0.00
2017-09-27T04:19:04.325Z,0.00
2017-09-27T04:20:04.250Z,0.00
2017-09-27T04:21:57.214Z,0.00
2017-09-27T04:22:57.243Z,0.00
2017-09-27T04:24:50.689Z,0.00
2017-09-27T04:25:50.666Z,0.00
2017-09-27T04:27:45.111Z,0.00
2017-09-27T04:28:45.060Z,0.00
2017-09-27T04:30:39.479Z,0.00
2017-09-27T04:31:39.450Z,0.00
2017-09-27T04:33:40.563Z,0.00
2017-09-27T04:34:33.108Z,0.00
2017-09-27T04:36:26.307Z,0.00
2017-09-27T04:37:26.271Z,0.00
2017-09-27T04:39:19.688Z,0.00
2017-09-27T04:40:19.711Z,0.00
2017-09-27T04:42:13.082Z,0.00
2017-09-27T04:43:13.104Z,0.00
2017-09-27T04:45:07.564Z,0.00
2017-09-27T04:46:07.463Z,0.00
2017-09-27T04:48:00.873Z,0.00
2017-09-27T04:49:00.926Z,0.00
2017-09-27T04:50:54.347Z,0.00
2017-09-27T04:51:54.269Z,0.00
2017-09-27T04:53:56.301Z,0.00
2017-09-27T04:54:47.674Z,0.00
2017-09-27T04:56:41.074Z,0.00
2017-09-27T04:57:41.083Z,0.00
2017-09-27T04:59:34.463Z,0.00
2017-09-27T05:00:34.484Z,0.00
2017-09-27T05:02:27.893Z,0.00
2017-09-27T05:03:27.888Z,0.00
2017-09-27T05:05:21.282Z,0.00
2017-09-27T05:06:21.317Z,0.00
2017-09-27T05:08:15.675Z,0.00
2017-09-27T05:09:15.707Z,0.00
2017-09-27T05:11:09.040Z,0.00
2017-09-27T05:12:09.059Z,0.00
2017-09-27T05:14:02.546Z,0.00
2017-09-27T05:15:02.483Z,0.00
2017-09-27T05:16:55.929Z,5.63
2017-09-27T05:17:55.898Z,5.63
2017-09-27T05:19:49.318Z,5.63
2017-09-27T05:20:49.341Z,5.63
2017-09-27T05:22:42.691Z,5.63
2017-09-27T05:23:42.704Z,5.63
2017-09-27T05:25:36.119Z,5.63
2017-09-27T05:26:36.192Z,5.63
2017-09-27T05:28:30.054Z,11.25
2017-09-27T05:29:29.497Z,11.25
2017-09-27T05:31:23.909Z,11.25
2017-09-27T05:32:24.000Z,11.25
2017-09-27T05:34:18.325Z,11.25
2017-09-27T05:35:18.321Z,11.25
2017-09-27T05:37:11.779Z,11.25
2017-09-27T05:38:11.790Z,11.25
2017-09-27T05:40:05.321Z,11.25
2017-09-27T05:41:05.188Z,11.25
2017-09-27T05:42:58.694Z,16.88
2017-09-27T05:43:58.645Z,16.88
2017-09-27T05:45:52.139Z,16.88
2017-09-27T05:46:52.041Z,16.88
2017-09-27T05:48:45.504Z,22.50
2017-09-27T05:49:45.479Z,22.50
2017-09-27T05:51:38.946Z,28.13
2017-09-27T05:52:38.880Z,28.13
2017-09-27T05:54:39.953Z,28.13
2017-09-27T05:55:32.307Z,28.13
2017-09-27T05:57:25.996Z,33.75
2017-09-27T06:00:07.495Z,45.00
2017-09-27T06:00:59.220Z,45.00
2017-09-27T06:02:53.400Z,50.63
2017-09-27T06:03:53.454Z,50.63
2017-09-27T06:05:58.362Z,50.63
2017-09-27T06:06:47.842Z,50.63
2017-09-27T06:08:50.843Z,50.63
2017-09-27T06:09:50.878Z,50.63
2017-09-27T06:11:36.525Z,50.63
2017-09-27T06:12:45.810Z,50.63
2017-09-27T06:14:39.765Z,50.63
2017-09-27T06:15:39.757Z,45.00
2017-09-27T06:17:25.436Z,50.63
2017-09-27T06:18:35.355Z,50.63
2017-09-27T06:20:28.521Z,45.00
2017-09-27T06:21:20.018Z,45.00
2017-09-27T06:23:13.241Z,39.38
2017-09-27T06:24:13.302Z,39.38
2017-09-27T06:26:06.582Z,39.38
2017-09-27T06:27:06.679Z,39.38
2017-09-27T06:29:01.140Z,33.75
2017-09-27T06:30:01.098Z,33.75
2017-09-27T06:31:54.450Z,39.38
2017-09-27T06:32:54.547Z,39.38
2017-09-27T06:34:47.799Z,39.38
2017-09-27T06:35:47.811Z,39.38
2017-09-27T06:37:42.455Z,45.00
2017-09-27T06:38:42.250Z,45.00
2017-09-27T06:40:36.746Z,50.63
2017-09-27T06:41:36.658Z,50.63
2017-09-27T06:43:30.103Z,50.63
2017-09-27T06:44:30.141Z,56.25
2017-09-27T06:46:23.511Z,56.25
2017-09-27T06:47:23.503Z,61.88
2017-09-27T06:49:16.987Z,67.50
2017-09-27T06:50:24.568Z,73.13
2017-09-27T06:52:10.281Z,73.13
2017-09-27T06:53:10.329Z,67.50
2017-09-27T06:55:04.717Z,61.88
2017-09-27T06:56:04.749Z,61.88
2017-09-27T06:57:58.245Z,67.50
2017-09-27T06:58:58.129Z,67.50
2017-09-27T07:00:51.540Z,67.50
2017-09-27T07:01:51.548Z,67.50
2017-09-27T07:03:44.890Z,73.13
2017-09-27T07:04:44.906Z,73.13
2017-09-27T07:06:38.429Z,78.75
2017-09-27T07:07:38.324Z,84.38
2017-09-27T07:09:31.779Z,90.00
2017-09-27T07:10:31.734Z,90.00
2017-09-27T07:12:26.108Z,101.25
2017-09-27T07:13:26.272Z,106.88
2017-09-27T07:15:20.622Z,112.50
2017-09-27T07:16:20.510Z,118.13
2017-09-27T07:18:13.921Z,129.38
2017-09-27T07:19:13.960Z,140.63
2017-09-27T07:21:07.377Z,163.13
2017-09-27T07:22:07.365Z,168.75
2017-09-27T07:24:00.772Z,180.00
2017-09-27T07:25:00.783Z,180.00
2017-09-27T07:26:55.207Z,180.00
2017-09-27T07:27:55.173Z,174.38
2017-09-27T07:29:48.587Z,180.00
2017-09-27T07:30:48.619Z,180.00
2017-09-27T07:32:42.046Z,180.00
2017-09-27T07:33:41.998Z,174.38
2017-09-27T07:35:35.382Z,163.13
2017-09-27T07:36:35.418Z,157.50
2017-09-27T07:38:28.879Z,168.75
2017-09-27T07:39:28.811Z,174.38
2017-09-27T07:41:22.213Z,185.63
2017-09-27T07:42:22.250Z,196.88
2017-09-27T07:44:15.703Z,208.13
2017-09-27T07:45:15.655Z,208.13
2017-09-27T07:47:09.057Z,208.13
2017-09-27T07:48:09.011Z,213.75
2017-09-27T07:50:02.505Z,219.38
2017-09-27T07:51:02.458Z,219.38
2017-09-27T07:52:55.888Z,219.38
2017-09-27T07:53:55.889Z,219.38
2017-09-27T07:55:50.270Z,213.75
2017-09-27T07:56:50.304Z,213.75
2017-09-27T07:58:43.740Z,208.13
2017-09-27T07:59:43.688Z,202.50
2017-09-27T08:01:37.120Z,202.50
2017-09-27T08:02:37.115Z,208.13
2017-09-27T08:04:31.497Z,213.75
2017-09-27T08:05:31.499Z,208.13
2017-09-27T08:07:24.911Z,208.13
2017-09-27T08:08:24.899Z,208.13
2017-09-27T08:10:19.308Z,208.13
2017-09-27T08:11:19.315Z,202.50
2017-09-27T08:13:13.742Z,202.50
2017-09-27T08:14:13.739Z,202.50
2017-09-27T08:16:07.150Z,202.50
2017-09-27T08:17:07.128Z,213.75
2017-09-27T08:19:00.539Z,230.63
2017-09-27T08:20:00.533Z,230.63
2017-09-27T08:21:54.010Z,241.88
2017-09-27T08:22:53.960Z,241.88
2017-09-27T08:24:47.320Z,253.13
2017-09-27T08:25:47.369Z,253.13
2017-09-27T08:27:41.789Z,258.75
2017-09-27T08:28:41.763Z,270.00
2017-09-27T08:30:35.180Z,275.63
2017-09-27T08:31:35.168Z,275.63
2017-09-27T08:33:29.662Z,281.25
2017-09-27T08:34:29.618Z,281.25
2017-09-27T08:36:23.071Z,286.88
2017-09-27T08:37:23.031Z,292.50
2017-09-27T08:39:16.427Z,303.75
2017-09-27T08:40:16.445Z,303.75
2017-09-27T08:42:10.850Z,303.75
2017-09-27T08:43:10.845Z,292.50
2017-09-27T08:45:04.290Z,281.25
2017-09-27T08:46:04.210Z,281.25
2017-09-27T08:47:57.631Z,275.63
2017-09-27T08:48:57.665Z,275.63
2017-09-27T08:50:51.062Z,275.63
2017-09-27T08:51:51.050Z,281.25
2017-09-27T08:53:44.505Z,281.25
2017-09-27T08:54:44.478Z,275.63
2017-09-27T08:56:37.853Z,275.63
2017-09-27T08:57:37.873Z,270.00
2017-09-27T08:59:31.291Z,275.63
2017-09-27T09:00:31.292Z,275.63
2017-09-27T09:02:24.731Z,275.63
2017-09-27T09:03:24.731Z,270.00
2017-09-27T09:05:18.223Z,281.25
2017-09-27T09:06:18.076Z,286.88
2017-09-27T09:08:12.497Z,292.50
2017-09-27T09:09:12.532Z,292.50
2017-09-27T09:11:05.984Z,298.13
2017-09-27T09:12:05.970Z,303.75
2017-09-27T09:13:59.306Z,309.38
2017-09-27T09:14:59.332Z,315.00
2017-09-27T09:16:52.802Z,326.25
2017-09-27T09:17:52.729Z,331.88
2017-09-27T09:19:46.189Z,337.50
2017-09-27T09:20:46.154Z,337.50
2017-09-27T09:22:39.602Z,337.50
2017-09-27T09:23:39.589Z,337.50
2017-09-27T09:25:33.015Z,354.38
2017-09-27T09:26:33.027Z,365.63
2017-09-27T09:28:27.439Z,382.50
2017-09-27T09:29:27.388Z,393.75
2017-09-27T09:31:20.786Z,410.63
2017-09-27T09:32:20.807Z,427.50
2017-09-27T09:34:15.231Z,450.00
2017-09-27T09:35:15.221Z,461.25
2017-09-27T09:37:08.604Z,483.75
2017-09-27T09:38:08.638Z,489.38
2017-09-27T09:40:02.089Z,506.25
2017-09-27T09:41:02.051Z,517.50
2017-09-27T09:42:55.486Z,556.88
2017-09-27T09:43:55.458Z,568.13
2017-09-27T09:45:48.947Z,551.25
2017-09-27T09:46:48.960Z,568.13
2017-09-27T09:48:42.378Z,573.75
2017-09-27T09:49:42.353Z,573.75
2017-09-27T09:51:36.742Z,573.75
2017-09-27T09:52:36.782Z,568.13
2017-09-27T09:54:30.172Z,573.75
2017-09-27T09:55:30.144Z,573.75
2017-09-27T09:57:23.604Z,596.25
2017-09-27T09:58:23.609Z,585.00
2017-09-27T10:00:17.953Z,618.75
2017-09-27T10:01:17.995Z,618.75
2017-09-27T10:03:12.434Z,573.75
2017-09-27T10:04:12.376Z,551.25
2017-09-27T10:06:06.798Z,556.88
2017-09-27T10:07:06.820Z,433.13
2017-09-27T10:09:00.246Z,731.25
2017-09-27T10:10:00.294Z,601.88
2017-09-27T10:11:53.630Z,315.00
2017-09-27T10:12:53.669Z,247.50
2017-09-27T10:14:47.170Z,230.63
2017-09-27T10:15:47.074Z,208.13
2017-09-27T10:17:41.567Z,286.88
2017-09-27T10:18:41.503Z,365.63
2017-09-27T10:20:34.917Z,2340.00
2017-09-27T10:21:34.949Z,579.38
2017-09-27T10:23:28.318Z,1136.25
2017-09-27T10:24:28.359Z,1760.63
2017-09-27T10:26:21.727Z,2036.25
2017-09-27T10:27:21.769Z,1738.13
2017-09-27T10:29:15.128Z,1406.25
2017-09-27T10:30:15.167Z,1372.50
2017-09-27T10:32:09.562Z,1153.13
2017-09-27T10:33:09.631Z,382.50
2017-09-27T10:35:03.006Z,247.50
2017-09-27T10:36:03.003Z,275.63
2017-09-27T10:37:56.560Z,365.63
2017-09-27T10:38:56.409Z,337.50
2017-09-27T10:40:50.940Z,309.38
2017-09-27T10:41:50.906Z,247.50
2017-09-27T10:43:44.259Z,202.50
2017-09-27T10:44:44.234Z,196.88
2017-09-27T10:46:37.722Z,241.88
2017-09-27T10:47:37.685Z,433.13
2017-09-27T10:49:31.119Z,1186.88
2017-09-27T10:50:31.080Z,2700.00
2017-09-27T10:52:24.572Z,2700.00
2017-09-27T10:53:24.515Z,2767.50
2017-09-27T10:55:18.090Z,2694.38
2017-09-27T10:56:17.927Z,2626.88
2017-09-27T10:58:11.359Z,2806.88
2017-09-27T10:59:11.398Z,2829.38
2017-09-27T11:01:04.812Z,2745.00
2017-09-27T11:02:04.793Z,1850.63
2017-09-27T11:03:58.226Z,2328.75
2017-09-27T11:04:58.240Z,2233.13
2017-09-27T11:06:52.732Z,1676.25
2017-09-27T11:07:52.657Z,1912.50
2017-09-27T11:09:46.074Z,1569.38
2017-09-27T11:10:46.100Z,1901.25
2017-09-27T11:12:39.066Z,444.38
2017-09-27T11:13:39.156Z,534.38
2017-09-27T11:15:32.536Z,517.50
2017-09-27T11:16:32.538Z,466.88
2017-09-27T11:18:25.983Z,1192.50
2017-09-27T11:19:25.999Z,528.75
2017-09-27T11:21:19.387Z,511.88
2017-09-27T11:22:19.458Z,455.63
2017-09-27T11:24:13.819Z,540.00
2017-09-27T11:25:13.811Z,900.00
2017-09-27T11:27:08.376Z,804.38
2017-09-27T11:28:08.268Z,877.50
2017-09-27T11:30:01.705Z,720.00
2017-09-27T11:31:01.696Z,658.13
2017-09-27T11:32:55.133Z,607.50
2017-09-27T11:33:55.087Z,613.13
2017-09-27T11:35:48.537Z,320.63
2017-09-27T11:36:48.579Z,393.75
2017-09-27T11:38:42.021Z,421.88
2017-09-27T11:39:41.992Z,416.25
2017-09-27T11:41:35.417Z,545.63
2017-09-27T11:42:35.472Z,641.25
2017-09-27T11:44:29.829Z,376.88
2017-09-27T11:45:29.876Z,298.13
2017-09-27T11:47:23.231Z,315.00
2017-09-27T11:48:23.277Z,326.25
2017-09-27T11:50:16.665Z,343.13
2017-09-27T11:51:16.686Z,388.13
2017-09-27T11:53:10.083Z,523.13
2017-09-27T11:54:10.099Z,534.38
2017-09-27T11:56:03.493Z,450.00
2017-09-27T11:57:03.590Z,433.13
2017-09-27T11:58:57.048Z,399.38
2017-09-27T11:59:56.942Z,376.88
2017-09-27T12:01:51.769Z,466.88
2017-09-27T12:02:50.337Z,433.13
2017-09-27T12:04:43.773Z,292.50
2017-09-27T12:05:43.767Z,292.50
2017-09-27T12:07:37.236Z,382.50
2017-09-27T12:08:37.177Z,376.88
2017-09-27T12:10:30.602Z,427.50
2017-09-27T12:11:30.611Z,613.13
2017-09-27T12:13:24.091Z,832.50
2017-09-27T12:14:24.032Z,416.25
2017-09-27T12:16:18.443Z,506.25
2017-09-27T12:17:18.487Z,483.75
2017-09-27T12:19:12.864Z,466.88
2017-09-27T12:20:12.863Z,472.50
2017-09-27T12:22:06.296Z,444.38
2017-09-27T12:23:06.285Z,405.00
2017-09-27T12:24:59.842Z,399.38
2017-09-27T12:25:59.721Z,450.00
2017-09-27T12:27:53.108Z,455.63
2017-09-27T12:28:53.128Z,444.38
2017-09-27T12:30:46.545Z,528.75
2017-09-27T12:31:46.524Z,545.63
2017-09-27T12:33:39.938Z,556.88
2017-09-27T12:34:39.948Z,461.25
2017-09-27T12:36:33.433Z,399.38
2017-09-27T12:37:33.402Z,382.50
2017-09-27T12:39:26.788Z,354.38
2017-09-27T12:40:26.837Z,360.00
2017-09-27T12:42:20.276Z,331.88
2017-09-27T12:43:20.239Z,303.75
2017-09-27T12:45:13.629Z,298.13
2017-09-27T12:46:13.691Z,298.13
2017-09-27T12:48:07.096Z,258.75
2017-09-27T12:49:07.109Z,219.38
2017-09-27T12:51:01.594Z,230.63
2017-09-27T12:52:01.507Z,258.75
2017-09-27T12:53:55.054Z,416.25
2017-09-27T12:54:54.943Z,703.13
2017-09-27T12:56:48.333Z,652.50
2017-09-27T12:57:48.325Z,545.63
2017-09-27T12:59:41.831Z,461.25
2017-09-27T13:00:41.756Z,421.88
2017-09-27T13:02:35.179Z,506.25
2017-09-27T13:03:35.197Z,455.63
2017-09-27T13:05:29.610Z,506.25
2017-09-27T13:06:29.634Z,405.00
2017-09-27T13:08:23.038Z,348.75
2017-09-27T13:09:23.048Z,382.50
2017-09-27T13:11:16.529Z,478.13
2017-09-27T13:12:16.443Z,551.25
2017-09-27T13:14:09.856Z,540.00
2017-09-27T13:15:09.904Z,438.75
2017-09-27T13:17:03.324Z,472.50
2017-09-27T13:18:03.309Z,438.75
2017-09-27T13:19:56.738Z,483.75
2017-09-27T13:20:56.762Z,483.75
2017-09-27T13:22:50.147Z,433.13
2017-09-27T13:23:50.155Z,433.13
2017-09-27T13:25:43.555Z,461.25
2017-09-27T13:26:43.587Z,421.88
2017-09-27T13:28:37.004Z,444.38
2017-09-27T13:29:36.982Z,371.25
2017-09-27T13:31:30.454Z,343.13
2017-09-27T13:32:30.427Z,365.63
2017-09-27T13:34:24.854Z,382.50
2017-09-27T13:35:24.832Z,343.13
2017-09-27T13:37:18.260Z,298.13
2017-09-27T13:38:18.257Z,298.13
2017-09-27T13:40:11.670Z,337.50
2017-09-27T13:41:11.727Z,343.13
2017-09-27T13:43:05.119Z,433.13
2017-09-27T13:44:05.107Z,393.75
2017-09-27T13:45:58.543Z,399.38
2017-09-27T13:46:58.519Z,388.13
2017-09-27T13:48:51.909Z,399.38
2017-09-27T13:49:51.973Z,410.63
2017-09-27T13:51:45.457Z,365.63
2017-09-27T13:52:45.374Z,376.88
2017-09-27T13:54:38.869Z,326.25
2017-09-27T13:55:38.791Z,281.25
2017-09-27T13:57:32.204Z,348.75
2017-09-27T13:58:32.237Z,348.75
2017-09-27T14:00:25.648Z,320.63
2017-09-27T14:01:25.704Z,309.38
2017-09-27T14:03:19.077Z,258.75
2017-09-27T14:04:19.070Z,258.75
2017-09-27T14:06:12.512Z,275.63
2017-09-27T14:07:12.491Z,298.13
2017-09-27T14:09:05.940Z,303.75
2017-09-27T14:10:05.911Z,292.50
2017-09-27T14:11:59.358Z,247.50
2017-09-27T14:12:59.293Z,247.50
2017-09-27T14:14:53.796Z,258.75
2017-09-27T14:15:53.836Z,253.13
2017-09-27T14:17:48.173Z,247.50
2017-09-27T14:18:48.206Z,247.50
2017-09-27T14:20:42.575Z,241.88
2017-09-27T14:21:42.683Z,241.88
2017-09-27T14:23:35.985Z,247.50
2017-09-27T14:24:35.991Z,247.50
2017-09-27T14:26:30.513Z,270.00
2017-09-27T14:27:30.420Z,286.88
2017-09-27T14:29:23.845Z,303.75
2017-09-27T14:30:23.878Z,303.75
2017-09-27T14:32:17.266Z,320.63
2017-09-27T14:33:17.398Z,320.63
2017-09-27T14:35:10.753Z,343.13
2017-09-27T14:36:10.731Z,371.25
2017-09-27T14:38:04.084Z,388.13
2017-09-27T14:39:04.087Z,399.38
2017-09-27T14:40:58.565Z,410.63
2017-09-27T14:41:58.687Z,399.38
2017-09-27T14:43:52.041Z,371.25
2017-09-27T14:44:52.047Z,365.63
2017-09-27T14:46:45.344Z,326.25
2017-09-27T14:47:45.416Z,309.38
2017-09-27T14:49:38.819Z,191.25
2017-09-27T14:50:38.819Z,225.00
2017-09-27T14:52:32.223Z,202.50
2017-09-27T14:53:32.285Z,191.25
2017-09-27T14:55:25.785Z,180.00
2017-09-27T14:56:25.651Z,174.38
2017-09-27T14:58:20.107Z,168.75
2017-09-27T14:59:20.089Z,168.75
2017-09-27T15:01:13.492Z,168.75
2017-09-27T15:02:13.534Z,168.75
2017-09-27T15:04:07.082Z,168.75
2017-09-27T15:05:06.950Z,163.13
2017-09-27T15:07:00.479Z,151.88
2017-09-27T15:08:00.390Z,140.63
2017-09-27T15:09:54.818Z,146.25
2017-09-27T15:10:54.834Z,140.63
2017-09-27T15:12:48.322Z,135.00
2017-09-27T15:13:48.217Z,135.00
2017-09-27T15:15:41.672Z,135.00
2017-09-27T15:16:41.639Z,135.00
2017-09-27T15:18:35.072Z,129.38
2017-09-27T15:19:35.044Z,129.38
2017-09-27T15:21:28.471Z,123.75
2017-09-27T15:22:28.472Z,123.75
2017-09-27T15:24:22.016Z,118.13
2017-09-27T15:25:21.881Z,118.13
2017-09-27T15:27:15.283Z,118.13
2017-09-27T15:28:15.259Z,118.13
2017-09-27T15:30:08.716Z,112.50
2017-09-27T15:31:08.729Z,112.50
2017-09-27T15:33:02.155Z,112.50
2017-09-27T15:34:02.119Z,106.88
2017-09-27T15:35:56.610Z,112.50
2017-09-27T15:36:56.695Z,118.13
2017-09-27T15:38:50.071Z,118.13
2017-09-27T15:39:50.112Z,112.50
2017-09-27T15:41:43.613Z,106.88
2017-09-27T15:42:43.447Z,101.25
2017-09-27T15:44:37.924Z,95.63
2017-09-27T15:45:37.904Z,95.63
2017-09-27T15:47:31.438Z,95.63
2017-09-27T15:48:31.372Z,95.63
2017-09-27T15:50:24.695Z,90.00
2017-09-27T15:51:24.665Z,84.38
2017-09-27T15:53:18.117Z,84.38
2017-09-27T15:54:18.228Z,78.75
2017-09-27T15:56:11.699Z,78.75
2017-09-27T15:57:11.509Z,78.75
2017-09-27T15:59:05.926Z,78.75
2017-09-27T16:00:05.902Z,78.75
2017-09-27T16:01:59.379Z,73.13
2017-09-27T16:02:59.380Z,73.13
2017-09-27T16:04:52.773Z,73.13
2017-09-27T16:05:52.769Z,73.13
2017-09-27T16:07:47.244Z,67.50
2017-09-27T16:08:47.170Z,67.50
2017-09-27T16:10:40.664Z,61.88
2017-09-27T16:11:40.691Z,61.88
2017-09-27T16:13:35.059Z,61.88
2017-09-27T16:14:35.643Z,56.25
2017-09-27T16:16:28.430Z,56.25
2017-09-27T16:17:28.425Z,56.25
2017-09-27T16:19:21.897Z,50.63
2017-09-27T16:20:21.883Z,50.63
2017-09-27T16:22:15.293Z,50.63
2017-09-27T16:23:15.271Z,50.63
2017-09-27T16:25:08.739Z,45.00
2017-09-27T16:26:08.747Z,45.00
2017-09-27T16:28:02.262Z,45.00
2017-09-27T16:29:02.161Z,45.00
2017-09-27T16:30:55.536Z,39.38
2017-09-27T16:31:55.518Z,39.38
2017-09-27T16:33:48.953Z,39.38
2017-09-27T16:34:48.939Z,33.75
2017-09-27T16:36:42.426Z,33.75
2017-09-27T16:37:42.364Z,33.75
2017-09-27T16:39:35.953Z,33.75
2017-09-27T16:40:35.770Z,28.13
2017-09-27T16:42:29.177Z,28.13
2017-09-27T16:43:29.214Z,28.13
2017-09-27T16:45:22.631Z,22.50
2017-09-27T16:46:22.682Z,22.50
2017-09-27T16:48:16.195Z,22.50
2017-09-27T16:49:16.046Z,16.88
2017-09-27T16:51:09.507Z,16.88
2017-09-27T16:52:09.448Z,16.88
2017-09-27T16:54:04.985Z,11.25
2017-09-27T16:55:04.988Z,11.25
2017-09-27T16:56:58.380Z,11.25
2017-09-27T16:57:58.314Z,11.25
2017-09-27T16:59:51.703Z,5.63
2017-09-27T17:00:51.748Z,5.63
2017-09-27T17:02:45.211Z,5.63
2017-09-27T17:03:45.206Z,5.63
2017-09-27T17:05:39.646Z,5.63
2017-09-27T17:06:39.530Z,5.63
2017-09-27T17:08:34.038Z,0.00
2017-09-27T17:09:34.000Z,0.00
2017-09-27T17:11:27.459Z,0.00
2017-09-27T17:12:27.382Z,0.00
2017-09-27T17:14:20.792Z,0.00
2017-09-27T17:15:20.798Z,0.00
2017-09-27T17:17:14.201Z,0.00
2017-09-27T17:18:14.192Z,0.00
2017-09-27T17:20:07.693Z,0.00
2017-09-27T17:21:07.632Z,0.00
2017-09-27T17:23:01.074Z,0.00
2017-09-27T17:24:01.037Z,0.00
2017-09-27T17:25:54.425Z,0.00
2017-09-27T17:26:54.437Z,0.00
2017-09-27T17:28:47.893Z,0.00
2017-09-27T17:29:47.902Z,0.00
2017-09-27T17:31:41.292Z,0.00
2017-09-27T17:32:41.258Z,0.00
2017-09-27T17:34:34.699Z,0.00
2017-09-27T17:35:34.723Z,0.00
2017-09-27T17:37:28.378Z,0.00
2017-09-27T17:38:30.052Z,0.00
2017-09-27T17:40:21.446Z,0.00
2017-09-27T17:41:21.464Z,0.00
2017-09-27T17:43:14.877Z,0.00
2017-09-27T17:44:14.866Z,0.00
2017-09-27T17:46:08.264Z,0.00
2017-09-27T17:47:08.272Z,0.00
2017-09-27T17:49:01.699Z,0.00
2017-09-27T17:50:01.692Z,0.00
2017-09-27T17:51:55.123Z,0.00
2017-09-27T17:52:55.096Z,0.00
2017-09-27T17:54:48.504Z,0.00
2017-09-27T17:55:48.497Z,0.00
2017-09-27T17:57:42.952Z,0.00
2017-09-27T17:58:43.133Z,0.00
2017-09-27T18:00:36.294Z,0.00
2017-09-27T18:01:36.307Z,0.00
2017-09-27T18:03:30.845Z,0.00
2017-09-27T18:04:30.723Z,0.00
2017-09-27T18:06:24.110Z,0.00
2017-09-27T18:07:24.148Z,0.00
2017-09-27T18:09:17.905Z,0.00
2017-09-27T18:10:17.522Z,0.00
2017-09-27T18:12:10.917Z,0.00
2017-09-27T18:13:10.936Z,0.00
2017-09-27T18:15:11.962Z,0.00
2017-09-27T18:16:04.331Z,0.00
2017-09-27T18:17:57.734Z,0.00
2017-09-27T18:18:57.743Z,0.00
2017-09-27T18:20:51.159Z,0.00
2017-09-27T18:21:51.158Z,0.00
2017-09-27T18:23:44.575Z,0.00
2017-09-27T18:24:44.560Z,0.00
2017-09-27T18:26:38.008Z,0.00
2017-09-27T18:27:38.150Z,0.00
2017-09-27T18:29:47.265Z,0.00
2017-09-27T18:30:47.312Z,0.00
2017-09-27T18:32:41.158Z,0.00
2017-09-27T18:33:40.730Z,0.00
2017-09-27T18:35:34.178Z,0.00
2017-09-27T18:36:34.173Z,0.00